Time;durP1;ratioP1;P1;durP2;ratioP2;P2;SDS_P1;SDS_P2;PMS_P1;PMS_P2;Temp;Humidity;BMP_temperature;BMP_pressure;BME280_temperature;BME280_humidity;BME280_pressure;Samples;Min_cycle;Max_cycle;Signal;HPM_P1;HPM_P2
2023/09/01 00:00:43;;;;;;;26.13;18.60;;;486.60;2380.80;;;;;;5022868;28;20026;-59
2023/09/01 00:03:09;;;;;;;22.15;18.13;;;486.50;2380.80;;;;;;5023761;28;20021;-56
2023/09/01 00:05:36;;;;;;;23.75;20.40;;;486.50;2380.80;;;;;;5028697;28;20025;-58
2023/09/01 00:08:02;;;;;;;20.95;18.73;;;486.50;2380.80;;;;;;5028972;28;20040;-58
2023/09/01 00:10:28;;;;;;;20.55;18.08;;;486.50;2380.80;;;;;;5029025;28;20026;-59
2023/09/01 00:12:56;;;;;;;19.70;17.65;;;486.50;2380.80;;;;;;5028277;28;20044;-57
2023/09/01 00:15:21;;;;;;;19.48;17.48;;;486.40;2380.80;;;;;;5029113;28;20032;-56
2023/09/01 00:17:47;;;;;;;20.23;16.00;;;486.40;2380.80;;;;;;5029056;28;20022;-57
2023/09/01 00:20:13;;;;;;;18.08;16.17;;;461.70;2380.80;;;;;;5028893;28;20029;-58
2023/09/01 00:22:38;;;;;;;20.13;17.67;;;461.70;2380.80;;;;;;5025624;28;20088;-57
2023/09/01 00:25:05;;;;;;;19.90;17.90;;;461.70;2380.80;;;;;;5018401;28;20018;-59
2023/09/01 00:27:30;;;;;;;23.65;20.33;;;461.70;2380.80;;;;;;5028140;28;20036;-57
2023/09/01 00:29:56;;;;;;;25.63;22.90;;;461.70;2380.80;;;;;;5016514;28;20861;-58
2023/09/01 00:32:22;;;;;;;23.05;20.67;;;461.70;2380.80;;;;;;5014943;28;20030;-57
2023/09/01 00:34:56;;;;;;;23.98;19.45;;;461.70;2380.80;;;;;;5021425;28;20014;-57
2023/09/01 00:37:22;;;;;;;25.08;20.42;;;461.70;2380.80;;;;;;5022143;28;20021;-59
2023/09/01 00:39:47;;;;;;;26.05;22.35;;;461.70;2380.80;;;;;;5018288;28;20013;-58
2023/09/01 00:42:13;;;;;;;30.02;21.80;;;461.60;2380.80;;;;;;5014840;28;20498;-58
2023/09/01 00:44:39;;;;;;;24.73;22.17;;;461.60;2380.80;;;;;;5028708;28;20033;-59
2023/09/01 00:47:05;;;;;;;22.75;20.42;;;461.60;2380.80;;;;;;5028748;28;20029;-59
2023/09/01 00:49:31;;;;;;;23.42;20.90;;;461.60;2150.40;;;;;;5028956;28;20048;-58
2023/09/01 00:51:58;;;;;;;22.17;19.98;;;461.60;2380.80;;;;;;5028638;28;20036;-58
2023/09/01 00:54:24;;;;;;;25.58;20.85;;;461.70;2380.80;;;;;;5028439;28;20055;-58
2023/09/01 00:56:53;;;;;;;27.67;20.00;;;461.70;2380.80;;;;;;5028324;28;20049;-59
2023/09/01 00:59:18;;;;;;;19.15;17.15;;;461.70;2380.80;;;;;;5028866;28;20475;-59
2023/09/01 01:01:44;;;;;;;22.42;19.25;;;461.70;2380.80;;;;;;5028840;28;20033;-59
2023/09/01 01:04:11;;;;;;;20.80;18.50;;;486.40;2380.80;;;;;;5028529;28;20076;-59
2023/09/01 01:07:00;;;;;;;23.20;18.33;;;486.40;2380.80;;;;;;5029270;28;20105;-58
2023/09/01 01:09:38;;;;;;;48.05;22.58;;;461.70;2380.80;;;;;;5032663;28;20029;-58
2023/09/01 01:12:08;;;;;;;41.88;24.35;;;461.50;2380.80;;;;;;5032345;28;20037;-58
2023/09/01 01:14:46;;;;;;;30.60;20.95;;;461.40;2380.80;;;;;;5032810;28;20025;-58
2023/09/01 01:17:14;;;;;;;30.30;22.83;;;461.30;2380.80;;;;;;5031969;28;20024;-58
2023/09/01 01:19:53;;;;;;;31.30;25.13;;;461.20;2380.80;;;;;;5032128;28;20084;-60
2023/09/01 01:22:40;;;;;;;26.95;21.48;;;461.20;2380.80;;;;;;5032121;28;20022;-58
2023/09/01 01:25:12;;;;;;;27.23;21.73;;;461.20;2380.80;;;;;;5032492;28;20025;-61
2023/09/01 01:27:40;;;;;;;28.10;21.38;;;461.20;2380.80;;;;;;5031790;28;20467;-58
2023/09/01 01:30:07;;;;;;;27.58;20.77;;;461.20;2380.80;;;;;;5032154;28;20025;-58
2023/09/01 01:32:34;;;;;;;23.33;20.58;;;461.30;2380.80;;;;;;5032087;28;20041;-58
2023/09/01 01:35:19;;;;;;;23.42;20.48;;;461.50;2380.80;;;;;;5020462;28;20017;-58
2023/09/01 01:38:15;;;;;;;25.55;21.48;;;461.20;2380.80;;;;;;5021645;28;20025;-58
2023/09/01 01:40:45;;;;;;;21.50;19.27;;;461.30;2380.80;;;;;;5021498;28;20483;-58
2023/09/01 01:43:12;;;;;;;22.85;20.35;;;461.30;2380.80;;;;;;5019357;28;20442;-58
2023/09/01 01:45:42;;;;;;;21.02;17.90;;;461.30;2380.80;;;;;;5024705;28;20025;-58
2023/09/01 01:48:07;;;;;;;25.40;20.70;;;461.40;2380.80;;;;;;5019886;28;20029;-59
2023/09/01 01:50:33;;;;;;;26.60;20.70;;;461.40;2380.80;;;;;;5020687;28;20021;-58
2023/09/01 01:52:59;;;;;;;27.00;20.83;;;461.50;2380.80;;;;;;5029326;28;20097;-58
2023/09/01 01:55:25;;;;;;;23.17;20.25;;;461.60;2380.80;;;;;;5031770;28;20025;-57
2023/09/01 01:57:51;;;;;;;23.90;20.38;;;461.60;2380.80;;;;;;5031038;28;20021;-57
2023/09/01 02:00:18;;;;;;;24.55;20.77;;;461.60;2380.80;;;;;;5031591;28;20033;-57
2023/09/01 02:02:44;;;;;;;22.67;19.13;;;461.60;2380.80;;;;;;5031170;28;20464;-57
2023/09/01 02:05:10;;;;;;;21.45;19.25;;;461.50;2380.80;;;;;;5031253;28;20029;-57
2023/09/01 02:07:36;;;;;;;27.10;20.23;;;461.50;2380.80;;;;;;5031266;28;20431;-57
2023/09/01 02:10:08;;;;;;;24.13;19.85;;;461.40;2380.80;;;;;;5031641;28;20065;-59
2023/09/01 02:12:34;;;;;;;24.73;21.42;;;461.40;2380.80;;;;;;5015250;28;20029;-59
2023/09/01 02:15:00;;;;;;;22.63;19.80;;;461.50;2380.80;;;;;;5030345;28;20072;-59
2023/09/01 02:17:26;;;;;;;27.40;21.90;;;461.50;2380.80;;;;;;5011969;28;20072;-59
2023/09/01 02:19:51;;;;;;;23.50;20.02;;;461.60;2380.80;;;;;;5022040;28;20410;-58
2023/09/01 02:22:17;;;;;;;25.00;19.40;;;461.60;2380.80;;;;;;5031014;28;20022;-59
2023/09/01 02:24:43;;;;;;;28.48;22.45;;;461.70;2380.80;;;;;;5031036;28;20574;-59
2023/09/01 02:27:08;;;;;;;26.13;20.83;;;461.70;2380.80;;;;;;5030947;28;20038;-59
2023/09/01 02:29:35;;;;;;;21.25;18.83;;;461.70;2380.80;;;;;;5031493;28;20475;-59
2023/09/01 02:32:00;;;;;;;25.60;19.58;;;461.60;2227.20;;;;;;5030783;28;20025;-59
2023/09/01 02:34:26;;;;;;;20.00;17.92;;;461.50;2380.80;;;;;;5031154;28;20022;-59
2023/09/01 02:36:52;;;;;;;18.27;16.38;;;461.60;2380.80;;;;;;5030708;28;20040;-58
2023/09/01 02:39:18;;;;;;;23.20;20.00;;;461.70;2380.80;;;;;;5030874;28;20108;-59
2023/09/01 02:41:44;;;;;;;23.73;19.80;;;461.70;2380.80;;;;;;5026719;28;20113;-59
2023/09/01 02:44:10;;;;;;;27.77;22.00;;;461.70;2380.80;;;;;;5025792;28;20136;-58
2023/09/01 02:46:36;;;;;;;22.48;20.02;;;486.40;2380.80;;;;;;5018971;28;20129;-58
2023/09/01 02:49:02;;;;;;;23.23;19.33;;;461.70;2380.80;;;;;;5024716;28;20017;-58
2023/09/01 02:51:27;;;;;;;18.08;16.27;;;461.70;2380.80;;;;;;5030517;28;20056;-58
2023/09/01 02:53:53;;;;;;;21.63;17.65;;;461.60;2380.80;;;;;;5030688;28;20076;-58
2023/09/01 02:56:19;;;;;;;20.98;16.90;;;461.50;2380.80;;;;;;5030329;28;20022;-58
2023/09/01 02:58:45;;;;;;;17.80;15.30;;;461.50;2380.80;;;;;;5030284;28;20384;-57
2023/09/01 03:01:11;;;;;;;20.88;16.10;;;461.50;2380.80;;;;;;5030483;28;20029;-58
2023/09/01 03:03:41;;;;;;;18.83;16.27;;;461.50;2380.80;;;;;;5030466;28;20044;-59
2023/09/01 03:06:10;;;;;;;19.08;17.10;;;461.50;2380.80;;;;;;5030496;28;20025;-58
2023/09/01 03:08:36;;;;;;;19.63;16.35;;;461.60;2380.80;;;;;;5030694;28;20033;-58
2023/09/01 03:11:03;;;;;;;17.63;15.73;;;461.50;2380.80;;;;;;5029858;28;20409;-59
2023/09/01 03:13:29;;;;;;;19.48;17.05;;;461.50;2380.80;;;;;;5029840;28;20572;-58
2023/09/01 03:15:55;;;;;;;21.05;17.45;;;461.40;2380.80;;;;;;5030111;28;20416;-58
2023/09/01 03:18:21;;;;;;;21.33;18.42;;;461.30;2380.80;;;;;;5030174;28;20029;-58
2023/09/01 03:20:47;;;;;;;19.08;17.17;;;461.20;2380.80;;;;;;5029816;28;20108;-58
2023/09/01 03:23:13;;;;;;;18.25;15.90;;;461.10;2380.80;;;;;;5029770;28;20064;-58
2023/09/01 03:25:39;;;;;;;17.92;15.85;;;461.10;2380.80;;;;;;5016390;28;20452;-58
2023/09/01 03:28:05;;;;;;;19.63;17.50;;;461.00;2380.80;;;;;;5029677;28;20045;-58
2023/09/01 03:30:31;;;;;;;17.17;15.48;;;461.00;2380.80;;;;;;5029263;28;20349;-59
2023/09/01 03:32:57;;;;;;;18.38;16.48;;;460.90;2380.80;;;;;;5029871;28;20041;-59
2023/09/01 03:35:23;;;;;;;20.83;17.13;;;460.90;2380.80;;;;;;5029510;28;20025;-58
2023/09/01 03:37:49;;;;;;;19.05;17.00;;;460.90;2380.80;;;;;;5029989;28;20029;-58
2023/09/01 03:40:15;;;;;;;20.10;18.02;;;460.90;2380.80;;;;;;5029239;28;20021;-58
2023/09/01 03:42:41;;;;;;;20.20;16.80;;;460.90;2380.80;;;;;;5028929;28;20056;-58
2023/09/01 03:45:07;;;;;;;19.75;17.75;;;461.00;2380.80;;;;;;5029596;28;20029;-59
2023/09/01 03:47:33;;;;;;;22.67;18.33;;;461.00;2380.80;;;;;;5020176;28;20132;-58
2023/09/01 03:49:59;;;;;;;23.15;18.67;;;461.00;2380.80;;;;;;5025857;28;20104;-58
2023/09/01 03:52:24;;;;;;;24.38;18.67;;;461.00;2380.80;;;;;;5017209;28;20029;-58
2023/09/01 03:54:50;;;;;;;24.02;18.27;;;460.90;2380.80;;;;;;5029239;28;20498;-59
2023/09/01 03:57:16;;;;;;;24.98;20.25;;;460.90;2380.80;;;;;;5029242;28;20033;-57
2023/09/01 03:59:43;;;;;;;20.50;18.42;;;460.80;2380.80;;;;;;5026508;28;20052;-57
2023/09/01 04:02:09;;;;;;;23.08;20.55;;;460.80;2380.80;;;;;;5023974;28;20021;-58
2023/09/01 04:04:35;;;;;;;23.52;21.02;;;460.80;2380.80;;;;;;5029516;28;20018;-58
2023/09/01 04:07:00;;;;;;;25.20;22.10;;;436.10;2355.20;;;;;;5020815;28;20487;-60
2023/09/01 04:09:26;;;;;;;23.15;20.65;;;436.00;2355.20;;;;;;5025018;28;20021;-58
2023/09/01 04:11:52;;;;;;;28.75;22.25;;;436.00;2355.20;;;;;;5021460;28;20475;-58
2023/09/01 04:14:17;;;;;;;32.60;22.50;;;436.00;2355.20;;;;;;5021957;28;20025;-58
2023/09/01 04:16:43;;;;;;;22.75;20.20;;;436.10;2355.20;;;;;;5028733;28;20025;-57
2023/09/01 04:19:10;;;;;;;22.67;19.52;;;436.10;2355.20;;;;;;5029253;28;20022;-58
2023/09/01 04:21:36;;;;;;;25.88;19.33;;;436.10;2355.20;;;;;;5026205;28;20487;-58
2023/09/01 04:24:02;;;;;;;25.13;20.83;;;436.00;2355.20;;;;;;5028551;28;20104;-58
2023/09/01 04:26:27;;;;;;;28.27;21.60;;;436.00;2355.20;;;;;;5029024;28;20044;-58
2023/09/01 04:28:53;;;;;;;24.20;20.70;;;436.00;2355.20;;;;;;5028493;28;20483;-58
2023/09/01 04:31:27;;;;;;;20.80;18.50;;;436.10;2355.20;;;;;;5021575;28;20084;-59
2023/09/01 04:33:54;;;;;;;23.45;18.83;;;460.80;2380.80;;;;;;5023996;28;20080;-58
2023/09/01 04:36:20;;;;;;;24.23;19.20;;;461.00;2380.80;;;;;;5021995;28;20033;-59
2023/09/01 04:38:45;;;;;;;23.80;18.25;;;461.10;2380.80;;;;;;5028639;28;20108;-58
2023/09/01 04:41:11;;;;;;;20.27;17.80;;;461.20;2380.80;;;;;;5022445;28;20036;-59
2023/09/01 04:43:37;;;;;;;19.15;16.77;;;461.40;2380.80;;;;;;5031744;28;20045;-58
2023/09/01 04:46:03;;;;;;;24.98;17.70;;;461.50;2380.80;;;;;;5031828;28;20041;-58
2023/09/01 04:48:30;;;;;;;21.60;17.75;;;461.60;2380.80;;;;;;5019794;28;20674;-58
2023/09/01 04:50:56;;;;;;;20.35;15.95;;;461.70;2380.80;;;;;;5033000;28;20079;-58
2023/09/01 04:53:22;;;;;;;19.05;16.35;;;461.60;2380.80;;;;;;5028207;28;20475;-58
2023/09/01 04:55:49;;;;;;;18.63;16.73;;;461.60;2380.80;;;;;;5032350;28;20104;-58
2023/09/01 04:58:15;;;;;;;19.48;15.75;;;461.70;2380.80;;;;;;5030488;28;20352;-58
2023/09/01 05:00:41;;;;;;;18.08;16.15;;;486.40;2380.80;;;;;;5020841;28;20025;-58
2023/09/01 05:03:07;;;;;;;18.92;15.23;;;486.50;2380.80;;;;;;5023700;28;20674;-58
2023/09/01 05:05:33;;;;;;;19.80;16.55;;;486.80;2380.80;;;;;;5032490;28;20368;-58
2023/09/01 05:07:59;;;;;;;19.30;15.55;;;487.10;2380.80;;;;;;5025068;28;20095;-59
2023/09/01 05:10:25;;;;;;;17.02;14.75;;;487.30;2380.80;;;;;;5026127;28;20079;-58
2023/09/01 05:12:50;;;;;;;18.58;15.85;;;512.50;2380.80;;;;;;5032007;28;20034;-58
2023/09/01 05:15:16;;;;;;;16.73;13.90;;;512.50;2380.80;;;;;;5031734;28;20030;-58
2023/09/01 05:17:42;;;;;;;14.63;13.10;;;537.70;2406.40;;;;;;5032199;28;20025;-58
2023/09/01 05:20:09;;;;;;;16.85;13.63;;;538.00;2406.40;;;;;;5032213;28;20026;-59
2023/09/01 05:22:35;;;;;;;16.30;12.93;;;538.50;2406.40;;;;;;5032465;28;20463;-58
2023/09/01 05:25:00;;;;;;;14.13;12.60;;;563.40;2432.00;;;;;;5031756;28;20036;-59
2023/09/01 05:27:26;;;;;;;16.38;12.90;;;563.90;2432.00;;;;;;5031600;28;20445;-58
2023/09/01 05:29:52;;;;;;;14.05;12.65;;;588.80;2432.00;;;;;;5031511;28;20415;-58
2023/09/01 05:32:19;;;;;;;15.07;12.40;;;614.70;2432.00;;;;;;5032561;28;20031;-57
2023/09/01 05:34:45;;;;;;;16.08;12.20;;;640.40;2432.00;;;;;;5032129;28;20021;-59
2023/09/01 05:37:12;;;;;;;13.02;11.63;;;640.80;2432.00;;;;;;5031932;28;20022;-58
2023/09/01 05:39:38;;;;;;;15.95;12.63;;;666.00;2432.00;;;;;;5031722;28;20033;-58
2023/09/01 05:42:04;;;;;;;15.60;11.63;;;665.70;2432.00;;;;;;5031300;28;20104;-57
2023/09/01 05:44:31;;;;;;;16.58;11.93;;;665.60;2432.00;;;;;;5017740;28;20041;-58
2023/09/01 05:46:57;;;;;;;15.40;12.93;;;665.70;2432.00;;;;;;5018242;28;20038;-57
2023/09/01 05:49:24;;;;;;;11.38;10.38;;;665.70;2432.00;;;;;;5031960;28;20029;-58
2023/09/01 05:51:49;;;;;;;14.40;11.25;;;691.80;2432.00;;;;;;5030960;28;20045;-58
2023/09/01 05:54:17;;;;;;;12.20;11.10;;;717.40;2380.80;;;;;;5029629;28;20060;-58
2023/09/01 05:56:43;;;;;;;11.23;10.13;;;742.40;2355.20;;;;;;5019870;28;20037;-58
2023/09/01 05:59:09;;;;;;;10.98;9.98;;;;;;;;;;5031284;28;20118;-58
2023/09/01 06:01:36;;;;;;;12.02;10.10;;;743.10;2227.20;;;;;;5031760;28;20025;-58
2023/09/01 06:04:05;;;;;;;11.98;10.45;;;743.30;2176.00;;;;;;5030985;28;20075;-58
2023/09/01 06:06:31;;;;;;;10.30;9.20;;;768.20;2124.80;;;;;;5031203;28;20033;-58
2023/09/01 06:08:58;;;;;;;10.48;9.13;;;768.10;2150.40;;;;;;5017628;28;20022;-58
2023/09/01 06:11:24;;;;;;;11.70;10.43;;;768.90;2048.00;;;;;;5017752;28;20109;-58
2023/09/01 06:13:50;;;;;;;11.55;10.35;;;794.20;2022.40;;;;;;5024645;28;20421;-59
2023/09/01 06:16:16;;;;;;;11.68;9.85;;;794.40;1996.80;;;;;;5014081;28;20034;-56
2023/09/01 06:18:41;;;;;;;11.77;10.63;;;819.50;1971.20;;;;;;5022347;28;20076;-58
2023/09/01 06:21:07;;;;;;;11.93;10.93;;;845.70;1868.80;;;;;;5026598;28;20029;-56
2023/09/01 06:23:33;;;;;;;13.52;10.82;;;871.10;1766.40;;;;;;5031009;28;20442;-59
2023/09/01 06:25:59;;;;;;;11.98;10.88;;;871.10;1766.40;;;;;;5030677;28;20466;-58
2023/09/01 06:28:24;;;;;;;12.40;11.10;;;896.20;1689.60;;;;;;5030968;28;20430;-58
2023/09/01 06:30:50;;;;;;;12.65;10.30;;;871.20;1689.60;;;;;;5030296;28;20064;-58
2023/09/01 06:33:16;;;;;;;12.32;10.95;;;871.30;1689.60;;;;;;5031201;28;20025;-58
2023/09/01 06:35:42;;;;;;;11.75;10.60;;;845.50;1766.40;;;;;;5031013;28;20053;-59
2023/09/01 06:38:08;;;;;;;12.63;11.45;;;845.20;1843.20;;;;;;5030877;28;20029;-59
2023/09/01 06:40:34;;;;;;;13.98;12.68;;;871.20;1715.20;;;;;;5030305;28;20030;-58
2023/09/01 06:43:02;;;;;;;14.27;12.98;;;794.10;1894.40;;;;;;5029930;28;20135;-58
2023/09/01 06:45:28;;;;;;;16.48;14.98;;;768.60;1894.40;;;;;;5030895;28;20021;-58
2023/09/01 06:47:57;;;;;;;15.52;13.93;;;742.50;2048.00;;;;;;5030502;28;20124;-58
2023/09/01 06:50:23;;;;;;;16.23;14.73;;;742.50;2073.60;;;;;;5030022;28;20052;-58
2023/09/01 06:52:49;;;;;;;16.67;14.88;;;;;;;;;;5030823;28;20056;-59
2023/09/01 06:55:15;;;;;;;19.50;14.45;;;;;;;;;;5030577;28;20493;-58
2023/09/01 06:57:41;;;;;;;22.30;20.05;;;717.40;2099.20;;;;;;5029948;28;20022;-60
2023/09/01 07:00:07;;;;;;;21.02;19.02;;;691.70;2150.40;;;;;;5030316;28;20472;-59
2023/09/01 07:02:33;;;;;;;21.85;19.48;;;640.20;2329.60;;;;;;5030381;28;20040;-60
2023/09/01 07:04:58;;;;;;;23.38;18.60;;;615.00;2406.40;;;;;;5029498;28;20021;-60
2023/09/01 07:07:24;;;;;;;21.27;19.05;;;615.00;2432.00;;;;;;5016687;28;20126;-60
2023/09/01 07:09:50;;;;;;;20.95;17.98;;;640.00;2432.00;;;;;;5030294;28;20018;-60
2023/09/01 07:12:15;;;;;;;21.13;18.92;;;666.20;2329.60;;;;;;5026860;28;20061;-59
2023/09/01 07:14:41;;;;;;;21.42;19.42;;;640.60;2406.40;;;;;;5019090;28;20025;-60
2023/09/01 07:17:07;;;;;;;22.10;20.30;;;691.30;2329.60;;;;;;5029852;28;20025;-60
2023/09/01 07:19:33;;;;;;;20.75;18.73;;;742.50;2150.40;;;;;;5030150;28;20025;-60
2023/09/01 07:21:58;;;;;;;20.70;18.30;;;819.90;1894.40;;;;;;5029848;28;20379;-60
2023/09/01 07:24:24;;;;;;;21.15;19.38;;;844.80;1868.80;;;;;;5030010;28;20022;-62
2023/09/01 07:26:50;;;;;;;23.10;21.05;;;793.70;1971.20;;;;;;5029382;28;20122;-63
2023/09/01 07:29:16;;;;;;;23.02;20.92;;;742.60;2048.00;;;;;;5029871;28;20800;-59
2023/09/01 07:31:42;;;;;;;25.35;23.08;;;691.90;2124.80;;;;;;5029242;28;20061;-61
2023/09/01 07:34:07;;;;;;;25.63;23.23;;;717.40;2099.20;;;;;;5029585;28;20529;-61
2023/09/01 07:36:33;;;;;;;26.05;23.75;;;;;;;;;;5029354;28;20059;-63
2023/09/01 07:38:59;;;;;;;26.20;23.77;;;;;;;;;;5029503;28;20073;-61
2023/09/01 07:41:25;;;;;;;28.75;26.25;;;768.10;1996.80;;;;;;5029509;28;20022;-61
2023/09/01 07:43:51;;;;;;;28.45;26.15;;;768.70;2022.40;;;;;;5028404;28;20534;-62
2023/09/01 07:46:16;;;;;;;28.02;25.83;;;819.80;1894.40;;;;;;5029439;28;20038;-62
2023/09/01 07:48:42;;;;;;;27.23;25.13;;;845.00;1868.80;;;;;;5029201;28;20025;-63
2023/09/01 07:51:08;;;;;;;29.25;26.45;;;845.10;1843.20;;;;;;5029582;28;20018;-64
2023/09/01 07:53:33;;;;;;;27.30;25.10;;;820.10;1843.20;;;;;;5029172;28;20368;-66
2023/09/01 07:55:59;;;;;;;29.13;26.75;;;870.50;1766.40;;;;;;5029314;28;20624;-63
2023/09/01 07:58:25;;;;;;;29.20;26.92;;;896.40;1689.60;;;;;;5028998;28;20024;-63
2023/09/01 08:00:52;;;;;;;27.67;25.35;;;922.30;1638.40;;;;;;5029359;28;20045;-62
2023/09/01 08:03:17;;;;;;;27.33;25.15;;;870.40;1766.40;;;;;;5028961;28;20030;-63
2023/09/01 08:05:43;;;;;;;29.55;26.90;;;820.00;1817.60;;;;;;5028657;28;20070;-63
2023/09/01 08:08:13;;;;;;;27.98;25.67;;;819.70;1843.20;;;;;;5028901;28;20073;-66
2023/09/01 08:10:39;;;;;;;32.30;29.55;;;768.60;1945.60;;;;;;5028846;28;20021;-62
2023/09/01 08:13:05;;;;;;;31.63;28.30;;;;;;;;;;5028544;28;20116;-63
2023/09/01 08:15:32;;;;;;;28.60;25.92;;;819.80;1843.20;;;;;;5028998;28;20026;-63
2023/09/01 08:17:58;;;;;;;28.02;25.10;;;819.80;1817.60;;;;;;5028085;28;20052;-62
2023/09/01 08:20:24;;;;;;;27.45;24.67;;;743.30;1945.60;;;;;;5028774;28;20456;-63
2023/09/01 08:22:50;;;;;;;26.40;24.15;;;742.70;1996.80;;;;;;5028640;28;20236;-63
2023/09/01 08:25:16;;;;;;;25.58;23.52;;;768.70;1894.40;;;;;;5028623;28;20104;-63
2023/09/01 08:27:42;;;;;;;27.52;25.15;;;;;;;;;;5028474;28;20029;-63
2023/09/01 08:30:09;;;;;;;24.65;22.65;;;870.80;1740.80;;;;;;5028368;28;20084;-62
2023/09/01 08:32:34;;;;;;;24.55;22.30;;;922.30;1612.80;;;;;;5028741;28;20112;-62
2023/09/01 08:35:04;;;;;;;24.27;22.23;;;896.50;1587.20;;;;;;5028186;28;20113;-62
2023/09/01 08:37:30;;;;;;;22.75;20.65;;;896.30;1612.80;;;;;;5028685;28;20032;-63
2023/09/01 08:39:55;;;;;;;24.75;22.95;;;896.60;1612.80;;;;;;5028630;28;20120;-61
2023/09/01 08:42:21;;;;;;;21.10;19.60;;;921.60;1612.80;;;;;;5028423;28;20140;-64
2023/09/01 08:44:49;;;;;;;18.63;17.13;;;922.00;1536.00;;;;;;5025242;28;20033;-61
2023/09/01 08:47:22;;;;;;;20.23;18.63;;;845.20;1689.60;;;;;;5018888;28;20029;-61
2023/09/01 08:49:51;;;;;;;19.73;18.00;;;794.40;1766.40;;;;;;5028470;28;20064;-61
2023/09/01 08:52:20;;;;;;;19.42;17.80;;;742.80;1894.40;;;;;;5028515;28;20537;-60
2023/09/01 08:54:46;;;;;;;21.38;19.20;;;742.90;1920.00;;;;;;5028495;28;20025;-60
2023/09/01 08:57:12;;;;;;;17.98;16.38;;;717.20;1996.80;;;;;;5028075;28;20376;-60
2023/09/01 08:59:38;;;;;;;20.38;18.48;;;717.20;1971.20;;;;;;5026727;28;20024;-63
2023/09/01 09:02:05;;;;;;;19.33;17.60;;;717.20;1971.20;;;;;;5008562;28;20375;-65
2023/09/01 09:04:31;;;;;;;19.52;17.77;;;717.20;1996.80;;;;;;5014192;28;20028;-61
2023/09/01 09:07:15;;;;;;;19.17;17.40;;;692.10;1971.20;;;;;;5028427;28;20042;-60
2023/09/01 09:09:55;;;;;;;20.33;18.63;;;691.90;1996.80;;;;;;5018216;28;20029;-59
2023/09/01 09:12:34;;;;;;;19.20;17.45;;;692.00;1971.20;;;;;;5025389;28;20379;-61
2023/09/01 09:14:59;;;;;;;18.50;16.80;;;717.10;1996.80;;;;;;5028750;28;20375;-63
2023/09/01 09:17:45;;;;;;;18.15;16.35;;;717.50;1971.20;;;;;;5028607;28;20028;-61
2023/09/01 09:20:13;;;;;;;18.60;16.65;;;742.60;1920.00;;;;;;5028338;28;20026;-61
2023/09/01 09:22:56;;;;;;;16.38;14.68;;;742.90;1996.80;;;;;;5028259;28;20021;-61
2023/09/01 09:25:29;;;;;;;15.40;14.05;;;742.60;1971.20;;;;;;5028162;28;20053;-60
2023/09/01 09:27:59;;;;;;;17.52;15.82;;;742.60;1945.60;;;;;;5028279;28;20110;-61
2023/09/01 09:30:28;;;;;;;19.02;17.20;;;742.90;1894.40;;;;;;5031538;28;20033;-63
2023/09/01 09:33:05;;;;;;;18.85;17.02;;;717.00;1996.80;;;;;;5018373;28;20080;-61
2023/09/01 09:35:47;;;;;;;17.92;16.27;;;717.50;2048.00;;;;;;5011955;28;20034;-63
2023/09/01 09:38:13;;;;;;;18.88;16.77;;;717.40;2022.40;;;;;;5022398;28;20030;-60
2023/09/01 09:40:39;;;;;;;16.38;14.77;;;717.30;2022.40;;;;;;5024734;28;20491;-60
2023/09/01 09:43:08;;;;;;;17.40;15.90;;;717.30;1996.80;;;;;;5031131;28;20045;-61
2023/09/01 09:45:37;;;;;;;17.02;15.35;;;717.70;1996.80;;;;;;5025439;28;20026;-62
2023/09/01 09:48:06;;;;;;;16.55;15.00;;;717.40;1971.20;;;;;;5011881;28;20038;-60
2023/09/01 09:50:34;;;;;;;11.95;10.85;;;717.50;1971.20;;;;;;5011700;28;20022;-60
2023/09/01 09:53:02;;;;;;;11.18;10.27;;;742.50;1920.00;;;;;;5025256;28;20033;-60
2023/09/01 09:55:41;;;;;;;10.82;9.85;;;717.70;1920.00;;;;;;5029230;28;20024;-60
2023/09/01 09:58:08;;;;;;;10.57;9.63;;;717.40;1868.80;;;;;;5029550;28;20037;-60
2023/09/01 10:00:42;;;;;;;11.45;10.50;;;717.40;1920.00;;;;;;5029379;28;20116;-60
2023/09/01 10:03:08;;;;;;;12.32;11.23;;;692.10;1894.40;;;;;;5029729;28;20021;-61
2023/09/01 10:05:35;;;;;;;12.15;11.02;;;717.20;1920.00;;;;;;5029495;28;20021;-60
2023/09/01 10:08:03;;;;;;;11.57;10.32;;;717.30;1894.40;;;;;;5028628;28;20078;-60
2023/09/01 10:10:33;;;;;;;8.73;7.93;;;717.40;1920.00;;;;;;5029334;28;20121;-59
2023/09/01 10:13:04;;;;;;;9.85;8.95;;;717.30;1868.80;;;;;;5028758;28;20048;-60
2023/09/01 10:15:35;;;;;;;10.38;9.48;;;692.10;1843.20;;;;;;5029128;28;20037;-60
2023/09/01 10:18:05;;;;;;;10.98;9.90;;;717.10;1945.60;;;;;;5029018;28;20032;-63
2023/09/01 10:20:37;;;;;;;10.95;9.85;;;717.40;1945.60;;;;;;5028770;28;20025;-60
2023/09/01 10:23:09;;;;;;;10.63;9.52;;;717.20;1894.40;;;;;;5029176;28;20025;-63
2023/09/01 10:25:35;;;;;;;10.48;9.55;;;692.00;1894.40;;;;;;5029036;28;20032;-60
2023/09/01 10:28:11;;;;;;;13.13;11.93;;;691.90;1920.00;;;;;;5028661;28;20116;-60
2023/09/01 10:30:42;;;;;;;11.60;10.55;;;691.70;1945.60;;;;;;5028965;28;20018;-60
2023/09/01 10:33:27;;;;;;;82.13;74.18;;;691.80;1971.20;;;;;;5028590;28;20433;-60
2023/09/01 10:35:57;;;;;;;11.00;10.00;;;691.70;1996.80;;;;;;5028525;28;20110;-60
2023/09/01 10:38:38;;;;;;;49.20;44.30;;;691.50;1945.60;;;;;;5028646;28;20059;-63
2023/09/01 10:41:04;;;;;;;10.15;9.20;;;691.90;1945.60;;;;;;5027697;28;20029;-60
2023/09/01 10:43:38;;;;;;;11.60;10.40;;;716.90;1945.60;;;;;;5028711;28;20558;-60
2023/09/01 10:46:12;;;;;;;10.85;9.80;;;717.20;1996.80;;;;;;5027846;28;20037;-60
2023/09/01 10:49:00;;;;;;;9.93;8.93;;;717.20;1920.00;;;;;;5028561;28;20037;-60
2023/09/01 10:51:27;;;;;;;10.40;9.40;;;717.40;1920.00;;;;;;5028786;28;20029;-60
2023/09/01 10:53:56;;;;;;;10.38;8.90;;;717.30;1894.40;;;;;;5028528;28;20537;-61
2023/09/01 10:56:22;;;;;;;11.68;10.55;;;717.40;1945.60;;;;;;5028550;28;20014;-60
2023/09/01 10:58:52;;;;;;;11.10;9.98;;;717.60;1894.40;;;;;;5028855;28;20025;-59
2023/09/01 11:01:25;;;;;;;10.75;9.75;;;742.40;1945.60;;;;;;5028159;28;20022;-60
2023/09/01 11:03:51;;;;;;;8.95;8.05;;;742.50;1971.20;;;;;;5028296;28;20028;-60
2023/09/01 11:06:16;;;;;;;9.52;8.63;;;717.70;1894.40;;;;;;5028837;28;20034;-62
2023/09/01 11:08:58;;;;;;;9.77;8.88;;;742.50;1920.00;;;;;;5028355;28;20074;-60
2023/09/01 11:11:23;;;;;;;10.32;9.30;;;742.50;1894.40;;;;;;5026634;28;20171;-60
2023/09/01 11:14:06;;;;;;;9.82;8.82;;;742.40;1868.80;;;;;;5008230;28;20113;-60
2023/09/01 11:16:31;;;;;;;9.48;8.57;;;742.50;1920.00;;;;;;5025167;28;20036;-59
2023/09/01 11:19:03;;;;;;;9.38;8.57;;;742.80;1894.40;;;;;;5028461;28;20025;-62
2023/09/01 11:21:32;;;;;;;9.85;8.88;;;742.70;1868.80;;;;;;5028422;28;20277;-59
2023/09/01 11:24:01;;;;;;;10.23;9.27;;;742.50;1843.20;;;;;;5028688;28;20026;-60
2023/09/01 11:26:27;;;;;;;10.77;9.68;;;716.90;1868.80;;;;;;5027424;28;20420;-61
2023/09/01 11:28:54;;;;;;;9.88;8.98;;;717.00;1894.40;;;;;;5027871;28;20321;-61
2023/09/01 11:31:20;;;;;;;19.67;11.07;;;717.20;1920.00;;;;;;5027461;28;20387;-60
2023/09/01 11:33:53;;;;;;;10.45;9.32;;;716.90;1945.60;;;;;;5028249;28;20033;-59
2023/09/01 11:36:19;;;;;;;;;;;717.10;1945.60;;;;;;5028475;28;20666;-60
2023/09/01 11:38:45;;;;;;;9.35;8.35;;;692.00;1920.00;;;;;;5027167;28;19908;-60
2023/09/01 11:41:18;;;;;;;9.98;9.07;;;717.10;1920.00;;;;;;5027580;28;20659;-60
2023/09/01 11:43:44;;;;;;;10.98;9.27;;;717.30;1920.00;;;;;;5027258;28;20099;-62
2023/09/01 11:46:10;;;;;;;9.13;8.25;;;717.10;1894.40;;;;;;5027378;28;20102;-64
2023/09/01 11:48:36;;;;;;;10.38;9.38;;;716.80;1920.00;;;;;;5027536;28;20021;-64
2023/09/01 11:51:04;;;;;;;9.27;8.38;;;717.10;1996.80;;;;;;5027066;28;20486;-60
2023/09/01 11:53:35;;;;;;;9.55;8.35;;;717.30;1971.20;;;;;;5026936;28;20033;-61
2023/09/01 11:56:22;;;;;;;8.82;7.97;;;717.20;1945.60;;;;;;5027415;28;20029;-63
2023/09/01 11:58:49;;;;;;;10.00;9.02;;;717.40;1920.00;;;;;;5027643;28;20049;-60
2023/09/01 12:01:17;;;;;;;9.27;8.45;;;717.30;1843.20;;;;;;5027521;28;20022;-60
2023/09/01 12:03:45;;;;;;;9.70;8.73;;;717.10;1894.40;;;;;;5027139;28;20108;-59
2023/09/01 12:06:26;;;;;;;9.18;8.27;;;717.20;1920.00;;;;;;5026596;28;20018;-60